createdAt,value
2023-03-29T00:00:43.541Z,100.00
2023-03-29T00:05:49.026Z,100.00
2023-03-29T00:10:56.936Z,100.00
2023-03-29T00:16:04.809Z,100.00
2023-03-29T00:21:10.347Z,100.00
2023-03-29T00:26:15.607Z,100.00
2023-03-29T00:31:23.369Z,100.00
2023-03-29T00:36:30.766Z,100.00
2023-03-29T00:41:35.832Z,100.00
2023-03-29T00:46:43.766Z,100.00
2023-03-29T00:51:49.008Z,100.00
2023-03-29T00:56:55.956Z,100.00
2023-03-29T01:02:07.314Z,100.00
2023-03-29T01:07:22.053Z,100.00
2023-03-29T01:12:32.879Z,100.00
2023-03-29T01:17:40.839Z,100.00
2023-03-29T01:23:00.867Z,100.00
2023-03-29T01:28:11.635Z,100.00
2023-03-29T01:33:23.721Z,100.00
2023-03-29T01:38:34.640Z,100.00
2023-03-29T01:43:48.931Z,100.00
2023-03-29T01:49:00.860Z,100.00
2023-03-29T01:54:10.877Z,100.00
2023-03-29T01:59:22.941Z,100.00
2023-03-29T02:04:34.576Z,100.00
2023-03-29T02:09:47.440Z,100.00
2023-03-29T02:14:57.321Z,100.00
2023-03-29T02:20:14.917Z,100.00
2023-03-29T02:25:22.872Z,100.00
2023-03-29T02:30:41.093Z,100.00
2023-03-29T02:35:53.489Z,100.00
2023-03-29T02:41:01.590Z,100.00
2023-03-29T02:46:13.873Z,100.00
2023-03-29T02:51:23.295Z,100.00
2023-03-29T02:56:33.870Z,100.00
2023-03-29T03:01:43.047Z,100.00
2023-03-29T03:06:48.487Z,100.00
2023-03-29T03:11:57.853Z,100.00
2023-03-29T03:17:09.027Z,100.00
2023-03-29T03:22:15.473Z,100.00
2023-03-29T03:27:21.162Z,100.00
2023-03-29T03:32:29.835Z,100.00
2023-03-29T03:38:08.781Z,99.29
2023-03-29T03:43:16.651Z,98.42
2023-03-29T03:48:28.203Z,96.58
2023-03-29T03:53:52.682Z,95.40
2023-03-29T03:59:11.220Z,95.11
2023-03-29T04:04:37.124Z,94.42
2023-03-29T04:09:52.821Z,93.93
2023-03-29T04:15:23.894Z,93.74
2023-03-29T04:20:42.740Z,94.08
2023-03-29T04:25:51.114Z,95.55
2023-03-29T04:31:15.946Z,96.22
2023-03-29T04:36:44.468Z,96.55
2023-03-29T04:42:00.528Z,97.03
2023-03-29T04:47:08.304Z,96.96
2023-03-29T04:52:36.869Z,97.57
2023-03-29T04:57:46.406Z,95.92
2023-03-29T05:02:59.728Z,95.50
2023-03-29T05:08:17.413Z,95.09
2023-03-29T05:13:45.461Z,95.24
2023-03-29T05:18:51.931Z,95.84
2023-03-29T05:24:00.749Z,95.32
2023-03-29T05:29:26.853Z,95.33
2023-03-29T05:34:46.339Z,93.95
2023-03-29T05:40:06.081Z,93.70
2023-03-29T05:45:19.304Z,93.64
2023-03-29T05:50:30.367Z,92.71
2023-03-29T05:55:41.534Z,91.55
2023-03-29T06:00:53.747Z,91.43
2023-03-29T06:06:24.906Z,91.29
2023-03-29T06:11:33.061Z,91.07
2023-03-29T06:16:55.325Z,90.66
2023-03-29T06:22:00.885Z,89.43
2023-03-29T06:27:10.024Z,89.94
2023-03-29T06:32:16.200Z,88.58
2023-03-29T06:37:39.652Z,86.56
2023-03-29T06:43:03.989Z,86.75
2023-03-29T06:48:18.032Z,85.72
2023-03-29T06:53:23.619Z,84.88
2023-03-29T06:58:45.571Z,84.50
2023-03-29T07:04:11.503Z,84.42
2023-03-29T07:09:54.109Z,83.75
2023-03-29T07:15:20.912Z,83.87
2023-03-29T07:20:49.682Z,84.93
2023-03-29T07:25:55.229Z,82.60
2023-03-29T07:31:10.137Z,84.15
2023-03-29T07:36:22.631Z,84.99
2023-03-29T07:41:28.902Z,85.30
2023-03-29T07:46:43.466Z,84.98
2023-03-29T07:51:49.473Z,86.52
2023-03-29T07:56:54.714Z,88.93
2023-03-29T08:02:14.211Z,92.41
2023-03-29T08:07:25.791Z,97.00
2023-03-29T08:12:32.060Z,97.62
2023-03-29T08:17:42.130Z,96.20
2023-03-29T08:22:50.577Z,94.64
2023-03-29T08:28:11.975Z,94.06
2023-03-29T08:33:30.677Z,94.51
2023-03-29T08:39:12.796Z,94.44
2023-03-29T08:44:35.569Z,93.68
2023-03-29T08:50:01.440Z,93.50
2023-03-29T08:55:32.317Z,93.59
2023-03-29T09:00:59.270Z,93.22
2023-03-29T09:06:15.059Z,92.67
2023-03-29T09:11:42.042Z,91.83
2023-03-29T09:16:58.691Z,91.61
2023-03-29T09:22:19.586Z,92.72
2023-03-29T09:27:31.760Z,91.04
2023-03-29T09:32:55.718Z,90.11
2023-03-29T09:38:15.261Z,91.34
2023-03-29T09:43:33.376Z,92.29
2023-03-29T09:48:46.786Z,92.68
2023-03-29T09:53:56.494Z,91.97
2023-03-29T09:59:37.236Z,92.03
2023-03-29T10:04:46.257Z,93.16
2023-03-29T10:10:16.248Z,91.43
2023-03-29T10:15:30.054Z,91.42
2023-03-29T10:20:39.163Z,92.26
2023-03-29T10:25:47.146Z,92.30
2023-03-29T10:30:59.510Z,91.66
2023-03-29T10:36:09.846Z,91.95
2023-03-29T10:41:22.302Z,91.40
2023-03-29T10:46:36.933Z,91.62
2023-03-29T10:51:50.815Z,91.52
2023-03-29T10:57:01.057Z,92.34
2023-03-29T11:02:33.664Z,92.75
2023-03-29T11:07:45.619Z,93.06
2023-03-29T11:12:59.874Z,93.78
2023-03-29T11:18:25.617Z,93.46
2023-03-29T11:23:45.055Z,92.93
2023-03-29T11:28:59.554Z,92.71
2023-03-29T11:34:18.399Z,91.42
2023-03-29T11:39:31.649Z,90.85
2023-03-29T11:44:47.025Z,90.71
2023-03-29T11:49:57.834Z,88.60
2023-03-29T11:55:10.227Z,87.64
2023-03-29T12:00:26.853Z,87.77
2023-03-29T12:05:37.694Z,87.74
2023-03-29T12:10:51.691Z,87.46
2023-03-29T12:16:10.764Z,87.93
2023-03-29T12:21:23.048Z,85.20
2023-03-29T12:26:44.940Z,85.71
2023-03-29T12:32:04.365Z,86.13
2023-03-29T12:37:32.664Z,85.16
2023-03-29T12:43:01.442Z,85.08
2023-03-29T12:48:43.336Z,86.38
2023-03-29T12:53:58.004Z,85.30
2023-03-29T12:59:30.552Z,84.31
2023-03-29T13:04:55.787Z,84.78
2023-03-29T13:10:10.871Z,83.45
2023-03-29T13:15:28.853Z,83.78
2023-03-29T13:20:49.094Z,83.00
2023-03-29T13:26:09.788Z,82.90
2023-03-29T13:31:28.494Z,84.15
2023-03-29T13:36:49.413Z,83.76
2023-03-29T13:41:57.534Z,82.28
2023-03-29T13:47:16.650Z,82.52
2023-03-29T13:52:30.929Z,83.66
2023-03-29T13:57:40.422Z,84.90
2023-03-29T14:02:50.418Z,83.50
2023-03-29T14:08:02.717Z,83.49
2023-03-29T14:13:08.310Z,81.98
2023-03-29T14:18:14.932Z,84.19
2023-03-29T14:23:25.708Z,82.96
2023-03-29T14:28:33.604Z,83.95
2023-03-29T14:33:38.927Z,84.37
2023-03-29T14:38:50.056Z,84.31
2023-03-29T14:43:58.559Z,83.62
2023-03-29T14:49:06.809Z,84.32
2023-03-29T14:54:22.564Z,85.43
2023-03-29T14:59:31.410Z,85.87
2023-03-29T15:04:37.632Z,87.42
2023-03-29T15:09:51.253Z,87.80
2023-03-29T15:14:57.541Z,88.11
2023-03-29T15:20:13.554Z,88.90
2023-03-29T15:25:23.208Z,88.92
2023-03-29T15:30:36.091Z,89.75
2023-03-29T15:35:43.142Z,92.61
2023-03-29T15:40:51.388Z,94.61
2023-03-29T15:45:56.730Z,95.76
2023-03-29T15:51:06.181Z,94.46
2023-03-29T15:56:23.245Z,93.93
2023-03-29T16:01:40.899Z,94.60
2023-03-29T16:06:48.797Z,94.59
2023-03-29T16:11:56.684Z,94.41
2023-03-29T16:17:05.119Z,94.17
2023-03-29T16:22:10.519Z,93.69
2023-03-29T16:27:18.180Z,93.54
2023-03-29T16:32:23.629Z,95.93
2023-03-29T16:37:28.714Z,95.85
2023-03-29T16:42:36.390Z,96.19
2023-03-29T16:47:44.494Z,96.96
2023-03-29T16:52:51.677Z,97.21
2023-03-29T16:57:59.322Z,97.69
2023-03-29T17:03:09.676Z,98.16
2023-03-29T17:08:15.611Z,97.69
2023-03-29T17:13:24.301Z,98.21
2023-03-29T17:18:35.394Z,98.43
2023-03-29T17:23:44.945Z,98.36
2023-03-29T17:28:54.001Z,99.94
2023-03-29T17:34:05.889Z,100.00
2023-03-29T17:39:11.272Z,100.00
2023-03-29T17:44:18.919Z,100.00
2023-03-29T17:49:24.251Z,100.00
2023-03-29T17:54:29.672Z,100.00
2023-03-29T17:59:38.154Z,100.00
2023-03-29T18:04:43.204Z,100.00
2023-03-29T18:09:48.296Z,100.00
2023-03-29T18:14:57.093Z,100.00
2023-03-29T18:20:02.080Z,100.00
2023-03-29T18:25:10.268Z,100.00
2023-03-29T18:30:19.568Z,100.00
2023-03-29T18:35:24.952Z,100.00
2023-03-29T18:40:31.344Z,100.00
2023-03-29T18:45:39.204Z,100.00
2023-03-29T18:50:46.736Z,100.00
2023-03-29T18:55:54.299Z,100.00
2023-03-29T19:01:07.139Z,100.00
2023-03-29T19:06:12.806Z,100.00
2023-03-29T19:11:20.210Z,100.00
2023-03-29T19:16:30.390Z,100.00
2023-03-29T19:21:35.682Z,100.00
2023-03-29T19:26:40.925Z,100.00
2023-03-29T19:31:48.947Z,100.00
2023-03-29T19:37:00.733Z,100.00
2023-03-29T19:42:06.954Z,100.00
2023-03-29T19:47:15.604Z,100.00
2023-03-29T19:52:24.155Z,100.00
2023-03-29T19:57:30.971Z,100.00
2023-03-29T20:02:39.085Z,100.00
2023-03-29T20:07:46.456Z,100.00
2023-03-29T20:12:51.673Z,100.00
2023-03-29T20:18:01.529Z,100.00
2023-03-29T20:23:06.819Z,100.00
2023-03-29T20:28:13.061Z,100.00
2023-03-29T20:33:23.384Z,100.00
2023-03-29T20:38:28.578Z,100.00
2023-03-29T20:43:37.931Z,100.00
2023-03-29T20:48:53.548Z,100.00
2023-03-29T20:54:02.726Z,100.00
2023-03-29T20:59:10.918Z,100.00
2023-03-29T21:04:21.331Z,100.00
2023-03-29T21:09:27.343Z,100.00
2023-03-29T21:14:34.850Z,100.00
2023-03-29T21:19:43.323Z,100.00
2023-03-29T21:24:50.728Z,100.00
2023-03-29T21:29:55.856Z,100.00
2023-03-29T21:35:04.393Z,100.00
2023-03-29T21:40:12.525Z,100.00
2023-03-29T21:45:19.926Z,100.00
2023-03-29T21:50:28.087Z,100.00
2023-03-29T21:55:33.129Z,100.00
2023-03-29T22:00:40.301Z,100.00
2023-03-29T22:05:58.347Z,100.00
2023-03-29T22:11:11.290Z,100.00
2023-03-29T22:16:19.498Z,100.00
2023-03-29T22:21:28.779Z,100.00
2023-03-29T22:26:35.361Z,100.00
2023-03-29T22:31:40.590Z,100.00
2023-03-29T22:36:48.511Z,100.00
2023-03-29T22:41:53.480Z,100.00
2023-03-29T22:46:58.669Z,100.00
2023-03-29T22:52:06.969Z,100.00
2023-03-29T22:57:12.032Z,100.00
2023-03-29T23:02:17.364Z,100.00
2023-03-29T23:07:24.986Z,100.00
2023-03-29T23:12:30.407Z,100.00
2023-03-29T23:17:35.659Z,100.00
2023-03-29T23:22:43.342Z,100.00
2023-03-29T23:27:48.323Z,100.00
2023-03-29T23:32:53.688Z,100.00
2023-03-29T23:38:01.774Z,100.00
2023-03-29T23:43:08.740Z,100.00
2023-03-29T23:48:13.770Z,100.00
2023-03-29T23:53:22.234Z,100.00
2023-03-29T23:58:29.949Z,100.00
